createdAt,value
2023-03-21T00:02:03.543Z,12.80
2023-03-21T00:04:44.520Z,12.90
2023-03-21T00:07:21.121Z,12.80
2023-03-21T00:09:49.877Z,12.80
2023-03-21T00:12:21.166Z,12.90
2023-03-21T00:14:50.628Z,12.90
2023-03-21T00:17:22.455Z,12.80
2023-03-21T00:19:51.668Z,12.80
2023-03-21T00:22:21.815Z,12.70
2023-03-21T00:24:52.198Z,12.80
2023-03-21T00:27:42.986Z,12.70
2023-03-21T00:30:11.549Z,12.50
2023-03-21T00:32:54.945Z,12.70
2023-03-21T00:38:16.251Z,12.80
2023-03-21T00:40:49.182Z,12.80
2023-03-21T00:43:19.595Z,12.70
2023-03-21T00:45:48.728Z,12.70
2023-03-21T00:48:19.809Z,12.60
2023-03-21T00:50:48.636Z,12.60
2023-03-21T00:53:18.754Z,12.60
2023-03-21T00:55:48.555Z,12.60
2023-03-21T00:58:17.576Z,12.60
2023-03-21T01:00:47.640Z,12.60
2023-03-21T01:03:24.811Z,12.70
2023-03-21T01:06:05.177Z,12.60
2023-03-21T01:08:51.024Z,12.70
2023-03-21T01:11:23.810Z,12.70
2023-03-21T01:13:57.848Z,12.60
2023-03-21T01:16:30.968Z,12.70
2023-03-21T01:19:01.185Z,12.70
2023-03-21T01:21:32.504Z,12.70
2023-03-21T01:24:02.994Z,12.70
2023-03-21T01:26:31.700Z,12.70
2023-03-21T01:29:01.145Z,12.80
2023-03-21T01:31:30.113Z,12.80
2023-03-21T01:33:59.010Z,12.70
2023-03-21T01:36:28.889Z,12.70
2023-03-21T01:39:06.176Z,12.70
2023-03-21T01:41:42.878Z,12.80
2023-03-21T01:44:24.808Z,12.80
2023-03-21T01:47:12.276Z,12.90
2023-03-21T01:49:50.577Z,12.90
2023-03-21T01:52:40.544Z,13.00
2023-03-21T01:55:16.224Z,13.00
2023-03-21T01:58:20.567Z,13.00
2023-03-21T02:01:16.027Z,13.10
2023-03-21T02:03:52.632Z,13.10
2023-03-21T02:06:33.796Z,13.10
2023-03-21T02:09:25.202Z,13.00
2023-03-21T02:11:56.408Z,13.10
2023-03-21T02:14:31.304Z,13.10
2023-03-21T02:17:13.891Z,13.10
2023-03-21T02:20:25.473Z,13.10
2023-03-21T02:23:24.208Z,13.20
2023-03-21T02:26:41.133Z,13.30
2023-03-21T02:29:29.686Z,13.20
2023-03-21T02:32:20.309Z,13.20
2023-03-21T02:35:16.440Z,13.10
2023-03-21T02:37:59.841Z,13.10
2023-03-21T02:40:35.708Z,12.90
2023-03-21T02:43:22.233Z,12.90
2023-03-21T02:45:55.939Z,12.90
2023-03-21T02:48:41.114Z,12.80
2023-03-21T02:51:21.148Z,13.00
2023-03-21T02:54:19.929Z,13.00
2023-03-21T02:56:46.706Z,13.10
2023-03-21T02:59:16.751Z,13.20
2023-03-21T03:01:46.391Z,13.20
2023-03-21T03:04:20.776Z,13.10
2023-03-21T03:07:10.644Z,13.10
2023-03-21T03:09:57.434Z,13.20
2023-03-21T03:12:33.372Z,13.10
2023-03-21T03:15:11.712Z,13.20
2023-03-21T03:17:50.887Z,13.20
2023-03-21T03:20:27.286Z,13.20
2023-03-21T03:23:07.270Z,13.20
2023-03-21T03:25:46.152Z,13.30
2023-03-21T03:28:21.212Z,13.40
2023-03-21T03:31:07.580Z,13.30
2023-03-21T03:33:49.436Z,13.40
2023-03-21T03:36:31.227Z,13.30
2023-03-21T03:39:09.089Z,13.40
2023-03-21T03:44:40.500Z,13.30
2023-03-21T03:47:22.971Z,13.30
2023-03-21T03:50:03.947Z,13.40
2023-03-21T03:52:42.060Z,13.30
2023-03-21T03:55:18.689Z,13.30
2023-03-21T03:57:51.864Z,13.30
2023-03-21T04:00:21.586Z,13.20
2023-03-21T04:02:52.509Z,13.10
2023-03-21T04:05:25.012Z,13.10
2023-03-21T04:07:55.153Z,13.10
2023-03-21T04:10:32.157Z,13.10
2023-03-21T04:13:03.657Z,13.20
2023-03-21T04:15:46.036Z,13.10
2023-03-21T04:18:17.863Z,13.20
2023-03-21T04:20:48.561Z,13.30
2023-03-21T04:23:18.970Z,13.30
2023-03-21T04:25:56.214Z,13.10
2023-03-21T04:28:33.451Z,13.20
2023-03-21T04:31:31.010Z,13.20
2023-03-21T04:34:09.756Z,13.20
2023-03-21T04:36:43.019Z,13.20
2023-03-21T04:39:13.266Z,13.20
2023-03-21T04:41:45.131Z,13.20
2023-03-21T04:44:17.179Z,13.30
2023-03-21T04:46:46.321Z,13.20
2023-03-21T04:49:15.460Z,13.30
2023-03-21T04:51:45.646Z,13.30
2023-03-21T04:54:19.192Z,13.30
2023-03-21T04:56:48.056Z,13.30
2023-03-21T04:59:18.261Z,13.30
2023-03-21T05:01:47.561Z,13.30
2023-03-21T05:04:16.482Z,13.30
2023-03-21T05:06:46.545Z,13.30
2023-03-21T05:09:18.000Z,13.20
2023-03-21T05:11:47.084Z,13.20
2023-03-21T05:14:20.326Z,13.30
2023-03-21T05:16:53.388Z,13.40
2023-03-21T05:19:26.026Z,13.40
2023-03-21T05:21:55.167Z,13.40
2023-03-21T05:24:28.315Z,13.40
2023-03-21T05:27:02.094Z,13.50
2023-03-21T05:29:34.842Z,13.40
2023-03-21T05:32:06.526Z,13.40
2023-03-21T05:34:35.302Z,13.30
2023-03-21T05:37:04.186Z,13.30
2023-03-21T05:39:44.827Z,13.20
2023-03-21T05:42:24.542Z,13.30
2023-03-21T05:44:54.802Z,13.40
2023-03-21T05:47:41.495Z,13.30
2023-03-21T05:50:13.352Z,13.20
2023-03-21T05:52:45.063Z,13.30
2023-03-21T05:55:16.359Z,13.30
2023-03-21T05:57:45.063Z,13.30
2023-03-21T06:00:30.625Z,13.20
2023-03-21T06:03:18.473Z,13.20
2023-03-21T06:06:22.698Z,13.30
2023-03-21T06:08:57.386Z,13.30
2023-03-21T06:11:29.943Z,13.30
2023-03-21T06:14:22.543Z,13.10
2023-03-21T06:17:25.339Z,12.90
2023-03-21T06:20:01.131Z,13.00
2023-03-21T06:22:34.479Z,12.90
2023-03-21T06:25:07.535Z,13.00
2023-03-21T06:27:37.433Z,12.90
2023-03-21T06:30:09.384Z,12.90
2023-03-21T06:32:59.614Z,12.90
2023-03-21T06:35:28.354Z,12.90
2023-03-21T06:37:58.381Z,12.90
2023-03-21T06:40:27.907Z,13.00
2023-03-21T06:42:56.857Z,12.90
2023-03-21T06:45:26.566Z,13.00
2023-03-21T06:47:55.417Z,13.00
2023-03-21T06:50:46.504Z,12.90
2023-03-21T06:53:15.399Z,13.00
2023-03-21T06:56:11.486Z,13.00
2023-03-21T06:58:42.261Z,12.90
2023-03-21T07:01:18.911Z,12.90
2023-03-21T07:03:58.998Z,12.80
2023-03-21T07:06:31.002Z,12.80
2023-03-21T07:09:02.966Z,12.80
2023-03-21T07:11:34.709Z,12.90
2023-03-21T07:14:04.749Z,13.00
2023-03-21T07:16:34.208Z,13.10
2023-03-21T07:19:03.125Z,13.00
2023-03-21T07:21:33.285Z,13.00
2023-03-21T07:24:02.274Z,13.00
2023-03-21T07:26:31.117Z,13.10
2023-03-21T07:29:00.883Z,12.90
2023-03-21T07:31:29.908Z,12.90
2023-03-21T07:33:58.777Z,13.00
2023-03-21T07:36:28.186Z,13.10
2023-03-21T07:38:58.310Z,13.30
2023-03-21T07:41:27.172Z,13.40
2023-03-21T07:44:03.888Z,13.30
2023-03-21T07:46:35.296Z,13.40
2023-03-21T07:49:03.996Z,13.60
2023-03-21T07:51:32.727Z,13.60
2023-03-21T07:54:03.032Z,13.70
2023-03-21T07:56:32.052Z,13.60
2023-03-21T07:59:01.013Z,13.50
2023-03-21T08:01:29.770Z,13.60
2023-03-21T08:03:58.542Z,13.50
2023-03-21T08:06:29.431Z,13.30
2023-03-21T08:08:58.141Z,13.20
2023-03-21T08:11:31.397Z,13.20
2023-03-21T08:14:00.619Z,13.20
2023-03-21T08:16:29.776Z,13.30
2023-03-21T08:18:58.581Z,13.40
2023-03-21T08:21:27.664Z,13.50
2023-03-21T08:23:56.393Z,13.50
2023-03-21T08:26:25.752Z,13.50
2023-03-21T08:28:55.935Z,13.50
2023-03-21T08:31:24.657Z,13.60
2023-03-21T08:33:54.947Z,13.60
2023-03-21T08:36:24.482Z,13.70
2023-03-21T08:38:56.979Z,13.60
2023-03-21T08:41:26.030Z,13.70
2023-03-21T08:43:56.073Z,13.70
2023-03-21T08:46:24.825Z,13.70
2023-03-21T08:48:53.726Z,13.70
2023-03-21T08:51:22.667Z,13.60
2023-03-21T08:53:52.209Z,13.60
2023-03-21T08:56:21.011Z,13.90
2023-03-21T08:58:49.856Z,13.90
2023-03-21T09:01:20.191Z,14.10
2023-03-21T09:03:48.988Z,14.20
2023-03-21T09:06:18.737Z,14.30
2023-03-21T09:08:48.404Z,14.60
2023-03-21T09:11:17.093Z,14.80
2023-03-21T09:13:46.215Z,15.00
2023-03-21T09:16:14.990Z,15.10
2023-03-21T09:18:49.573Z,15.10
2023-03-21T09:21:21.068Z,15.10
2023-03-21T09:23:52.907Z,14.80
2023-03-21T09:26:21.966Z,14.80
2023-03-21T09:28:51.194Z,14.50
2023-03-21T09:31:22.712Z,14.60
2023-03-21T09:33:54.080Z,14.50
2023-03-21T09:36:24.998Z,14.60
2023-03-21T09:38:54.494Z,14.50
2023-03-21T09:41:40.557Z,14.50
2023-03-21T09:44:24.798Z,14.70
2023-03-21T09:46:56.397Z,14.60
2023-03-21T09:49:31.097Z,14.60
2023-03-21T09:52:03.641Z,14.80
2023-03-21T09:54:35.754Z,14.90
2023-03-21T09:57:15.032Z,15.00
2023-03-21T09:59:45.083Z,15.20
2023-03-21T10:02:32.458Z,15.50
2023-03-21T10:05:04.662Z,15.40
2023-03-21T10:07:41.849Z,15.40
2023-03-21T10:10:18.034Z,15.20
2023-03-21T10:12:49.018Z,15.20
2023-03-21T10:15:21.157Z,15.20
2023-03-21T10:17:56.254Z,15.30
2023-03-21T10:20:28.148Z,15.40
2023-03-21T10:22:59.738Z,15.30
2023-03-21T10:25:33.506Z,15.50
2023-03-21T10:28:05.690Z,15.60
2023-03-21T10:30:41.733Z,15.50
2023-03-21T10:33:15.405Z,15.60
2023-03-21T10:35:54.294Z,15.70
2023-03-21T10:38:25.909Z,15.80
2023-03-21T10:40:56.108Z,16.00
2023-03-21T10:43:40.778Z,16.00
2023-03-21T10:46:13.871Z,16.00
2023-03-21T10:48:46.841Z,16.10
2023-03-21T10:51:21.820Z,16.10
2023-03-21T10:53:54.804Z,15.90
2023-03-21T10:56:27.696Z,15.80
2023-03-21T10:58:59.783Z,16.00
2023-03-21T11:01:32.895Z,16.20
2023-03-21T11:04:06.760Z,16.10
2023-03-21T11:06:41.099Z,16.00
2023-03-21T11:09:15.094Z,15.90
2023-03-21T11:11:52.413Z,15.80
2023-03-21T11:14:34.448Z,16.00
2023-03-21T11:17:04.936Z,16.10
2023-03-21T11:19:36.593Z,16.10
2023-03-21T11:22:09.244Z,15.80
2023-03-21T11:24:38.255Z,15.80
2023-03-21T11:27:09.281Z,16.00
2023-03-21T11:29:40.621Z,16.10
2023-03-21T11:32:14.827Z,16.20
2023-03-21T11:34:48.673Z,16.20
2023-03-21T11:37:29.560Z,16.30
2023-03-21T11:40:09.282Z,16.20
2023-03-21T11:42:44.417Z,16.00
2023-03-21T11:45:16.553Z,15.90
2023-03-21T11:47:46.276Z,15.70
2023-03-21T11:50:21.864Z,15.60
2023-03-21T11:53:04.002Z,15.90
2023-03-21T11:55:37.878Z,16.20
2023-03-21T11:58:23.434Z,16.30
2023-03-21T12:00:57.539Z,16.50
2023-03-21T12:03:56.662Z,16.60
2023-03-21T12:06:33.090Z,16.60
2023-03-21T12:09:23.224Z,16.50
2023-03-21T12:12:02.673Z,16.30
2023-03-21T12:14:39.897Z,16.30
2023-03-21T12:17:21.789Z,16.50
2023-03-21T12:20:23.436Z,16.50
2023-03-21T12:23:07.779Z,16.40
2023-03-21T12:25:43.514Z,16.30
2023-03-21T12:28:32.497Z,16.60
2023-03-21T12:31:09.181Z,16.90
2023-03-21T12:33:57.010Z,17.20
2023-03-21T12:36:41.340Z,17.20
2023-03-21T12:39:15.756Z,17.30
2023-03-21T12:41:53.329Z,17.40
2023-03-21T12:44:24.776Z,17.40
2023-03-21T12:46:59.596Z,17.60
2023-03-21T12:49:33.655Z,17.70
2023-03-21T12:52:05.615Z,17.80
2023-03-21T12:54:39.110Z,17.70
2023-03-21T12:57:14.770Z,17.70
2023-03-21T12:59:51.567Z,17.50
2023-03-21T13:02:26.480Z,17.30
2023-03-21T13:05:02.971Z,17.20
2023-03-21T13:07:36.016Z,17.20
2023-03-21T13:10:14.465Z,17.10
2023-03-21T13:12:49.461Z,17.00
2023-03-21T13:15:57.336Z,17.20
2023-03-21T13:18:43.178Z,17.20
2023-03-21T13:21:16.765Z,17.10
2023-03-21T13:24:01.636Z,17.00
2023-03-21T13:26:41.614Z,17.00
2023-03-21T13:29:25.495Z,17.10
2023-03-21T13:31:57.648Z,17.00
2023-03-21T13:34:27.309Z,16.90
2023-03-21T13:36:58.633Z,16.90
2023-03-21T13:39:29.917Z,16.80
2023-03-21T13:42:05.820Z,16.80
2023-03-21T13:44:42.458Z,17.00
2023-03-21T13:47:31.732Z,17.00
2023-03-21T13:50:45.313Z,17.10
2023-03-21T13:53:23.475Z,17.00
2023-03-21T13:56:09.379Z,17.20
2023-03-21T13:58:39.873Z,17.50
2023-03-21T14:01:23.963Z,17.60
2023-03-21T14:04:00.397Z,17.80
2023-03-21T14:06:36.257Z,17.70
2023-03-21T14:09:06.822Z,17.60
2023-03-21T14:11:41.959Z,17.40
2023-03-21T14:14:16.458Z,17.30
2023-03-21T14:16:47.139Z,17.00
2023-03-21T14:19:15.999Z,16.70
2023-03-21T14:21:54.064Z,16.90
2023-03-21T14:24:22.804Z,16.90
2023-03-21T14:26:53.436Z,16.80
2023-03-21T14:29:27.438Z,16.60
2023-03-21T14:32:00.204Z,16.50
2023-03-21T14:34:31.761Z,16.50
2023-03-21T14:37:00.697Z,16.50
2023-03-21T14:39:33.852Z,16.50
2023-03-21T14:42:05.754Z,16.30
2023-03-21T14:44:52.774Z,16.10
2023-03-21T14:47:26.526Z,16.00
2023-03-21T14:49:55.701Z,16.10
2023-03-21T14:52:27.227Z,16.10
2023-03-21T14:54:57.257Z,16.10
2023-03-21T14:57:29.906Z,16.10
2023-03-21T15:00:06.490Z,16.20
2023-03-21T15:02:39.488Z,16.40
2023-03-21T15:05:11.707Z,16.50
2023-03-21T15:07:41.060Z,16.70
2023-03-21T15:10:17.400Z,16.60
2023-03-21T15:12:57.205Z,16.80
2023-03-21T15:15:27.913Z,16.70
2023-03-21T15:18:04.175Z,16.80
2023-03-21T15:20:36.744Z,16.70
2023-03-21T15:23:09.195Z,16.60
2023-03-21T15:25:39.523Z,16.60
2023-03-21T15:28:09.614Z,16.40
2023-03-21T15:30:38.746Z,16.30
2023-03-21T15:33:13.774Z,16.40
2023-03-21T15:35:46.117Z,16.20
2023-03-21T15:38:22.878Z,16.00
2023-03-21T15:40:52.234Z,15.90
2023-03-21T15:43:21.676Z,15.70
2023-03-21T15:45:54.522Z,15.50
2023-03-21T15:48:27.927Z,15.40
2023-03-21T15:51:01.411Z,15.30
2023-03-21T15:53:34.367Z,15.30
2023-03-21T15:56:04.579Z,15.30
2023-03-21T15:58:36.639Z,15.40
2023-03-21T16:01:07.823Z,15.10
2023-03-21T16:03:40.541Z,15.00
2023-03-21T16:06:18.879Z,15.00
2023-03-21T16:08:49.886Z,15.10
2023-03-21T16:11:24.343Z,15.20
2023-03-21T16:13:54.259Z,15.20
2023-03-21T16:16:24.756Z,15.10
2023-03-21T16:18:55.923Z,15.10
2023-03-21T16:21:27.659Z,15.10
2023-03-21T16:23:58.295Z,15.00
2023-03-21T16:26:29.573Z,15.00
2023-03-21T16:28:58.766Z,15.00
2023-03-21T16:31:29.782Z,15.10
2023-03-21T16:33:59.963Z,15.20
2023-03-21T16:36:31.440Z,15.20
2023-03-21T16:39:01.316Z,15.30
2023-03-21T16:41:30.237Z,15.30
2023-03-21T16:43:59.051Z,15.30
2023-03-21T16:46:28.777Z,15.30
2023-03-21T16:48:59.946Z,15.20
2023-03-21T16:51:33.771Z,15.10
2023-03-21T16:54:03.519Z,15.30
2023-03-21T16:56:38.226Z,15.20
2023-03-21T16:59:08.063Z,15.20
2023-03-21T17:01:38.339Z,15.10
2023-03-21T17:04:11.293Z,15.10
2023-03-21T17:06:45.673Z,15.00
2023-03-21T17:09:16.063Z,15.10
2023-03-21T17:11:45.366Z,15.20
2023-03-21T17:14:16.805Z,15.20
2023-03-21T17:16:46.244Z,15.20
2023-03-21T17:19:18.908Z,15.20
2023-03-21T17:21:47.842Z,15.30
2023-03-21T17:24:16.941Z,15.30
2023-03-21T17:26:48.249Z,15.30
2023-03-21T17:29:17.010Z,15.10
2023-03-21T17:31:48.262Z,15.00
2023-03-21T17:34:18.740Z,14.90
2023-03-21T17:36:49.942Z,15.00
2023-03-21T17:39:23.138Z,15.00
2023-03-21T17:41:57.031Z,15.00
2023-03-21T17:44:26.215Z,15.20
2023-03-21T17:46:55.073Z,15.00
2023-03-21T17:49:26.048Z,15.10
2023-03-21T17:51:54.742Z,15.20
2023-03-21T17:54:23.582Z,15.20
2023-03-21T17:56:56.118Z,15.00
2023-03-21T17:59:25.141Z,15.00
2023-03-21T18:01:53.977Z,15.00
2023-03-21T18:04:24.387Z,14.90
2023-03-21T18:06:53.948Z,14.90
2023-03-21T18:09:22.860Z,14.90
2023-03-21T18:11:51.644Z,14.90
2023-03-21T18:14:26.840Z,15.00
2023-03-21T18:16:57.598Z,14.90
2023-03-21T18:19:28.416Z,14.90
2023-03-21T18:21:57.727Z,14.80
2023-03-21T18:24:26.584Z,14.70
2023-03-21T18:26:55.338Z,14.90
2023-03-21T18:32:13.148Z,14.80
2023-03-21T18:34:43.580Z,14.80
2023-03-21T18:37:13.516Z,14.70
2023-03-21T18:39:44.468Z,14.70
2023-03-21T18:42:17.806Z,14.70
2023-03-21T18:44:48.972Z,14.70
2023-03-21T18:47:18.417Z,14.70
2023-03-21T18:50:12.473Z,14.60
2023-03-21T18:52:37.452Z,14.60
2023-03-21T18:55:07.321Z,14.60
2023-03-21T18:57:38.498Z,14.50
2023-03-21T19:00:12.916Z,14.50
2023-03-21T19:02:47.092Z,14.50
2023-03-21T19:05:20.289Z,14.60
2023-03-21T19:07:49.332Z,14.70
2023-03-21T19:10:20.706Z,14.60
2023-03-21T19:12:49.933Z,14.40
2023-03-21T19:15:21.375Z,14.40
2023-03-21T19:18:34.451Z,14.40
2023-03-21T19:20:45.533Z,14.50
2023-03-21T19:23:14.646Z,14.60
2023-03-21T19:25:43.932Z,14.60
2023-03-21T19:28:12.620Z,14.70
2023-03-21T19:30:49.822Z,14.60
2023-03-21T19:33:20.066Z,14.50
2023-03-21T19:36:08.897Z,14.50
2023-03-21T19:38:40.194Z,14.50
2023-03-21T19:41:08.875Z,14.50
2023-03-21T19:43:39.983Z,14.60
2023-03-21T19:46:14.699Z,14.60
2023-03-21T19:48:44.896Z,14.60
2023-03-21T19:51:31.274Z,14.60
2023-03-21T19:54:00.282Z,14.60
2023-03-21T19:56:31.364Z,14.60
2023-03-21T19:59:01.590Z,14.60
2023-03-21T20:01:32.279Z,14.60
2023-03-21T20:04:02.103Z,14.70
2023-03-21T20:06:32.413Z,14.50
2023-03-21T20:11:50.160Z,14.40
2023-03-21T20:14:22.005Z,14.50
2023-03-21T20:16:50.909Z,14.50
2023-03-21T20:19:20.142Z,14.50
2023-03-21T20:21:57.895Z,14.50
2023-03-21T20:24:28.268Z,14.60
2023-03-21T20:26:57.523Z,14.70
2023-03-21T20:32:15.686Z,14.70
2023-03-21T20:34:47.488Z,14.70
2023-03-21T20:37:17.795Z,14.80
2023-03-21T20:39:46.832Z,14.70
2023-03-21T20:42:15.673Z,14.70
2023-03-21T20:44:57.711Z,14.50
2023-03-21T20:47:27.798Z,14.50
2023-03-21T20:49:58.574Z,14.40
2023-03-21T20:52:57.457Z,14.30
2023-03-21T20:55:18.947Z,14.30
2023-03-21T20:57:48.558Z,14.30
2023-03-21T21:00:18.755Z,14.30
2023-03-21T21:02:49.288Z,14.20
2023-03-21T21:05:30.556Z,14.20
2023-03-21T21:08:03.015Z,14.10
2023-03-21T21:10:33.794Z,14.10
2023-03-21T21:13:03.299Z,14.00
2023-03-21T21:15:33.535Z,14.00
2023-03-21T21:18:06.140Z,13.90
2023-03-21T21:20:35.518Z,13.90
2023-03-21T21:23:06.073Z,13.90
2023-03-21T21:25:35.759Z,13.80
2023-03-21T21:28:09.060Z,13.80
2023-03-21T21:30:39.402Z,13.90
2023-03-21T21:33:09.595Z,14.00
2023-03-21T21:35:39.450Z,14.10
2023-03-21T21:38:09.900Z,14.20
2023-03-21T21:40:39.397Z,14.00
2023-03-21T21:43:08.700Z,14.00
2023-03-21T21:45:37.742Z,14.10
2023-03-21T21:48:08.124Z,14.10
2023-03-21T21:50:38.107Z,14.10
2023-03-21T21:53:07.456Z,14.10
2023-03-21T21:55:38.252Z,14.10
2023-03-21T21:58:09.100Z,14.10
2023-03-21T22:00:38.355Z,14.10
2023-03-21T22:03:07.872Z,14.10
2023-03-21T22:05:36.895Z,14.00
2023-03-21T22:08:06.231Z,13.90
2023-03-21T22:10:35.032Z,13.90
2023-03-21T22:13:05.418Z,13.80
2023-03-21T22:15:34.320Z,13.80
2023-03-21T22:18:03.163Z,13.80
2023-03-21T22:20:31.891Z,13.80
2023-03-21T22:23:00.996Z,13.90
2023-03-21T22:25:33.171Z,13.80
2023-03-21T22:28:02.244Z,13.70
2023-03-21T22:30:32.731Z,13.80
2023-03-21T22:33:09.353Z,14.00
2023-03-21T22:35:39.094Z,13.90
2023-03-21T22:38:08.281Z,13.90
2023-03-21T22:40:37.320Z,13.90
2023-03-21T22:43:06.251Z,14.00
2023-03-21T22:45:36.717Z,13.90
2023-03-21T22:48:06.293Z,13.90
2023-03-21T22:50:35.188Z,13.90
2023-03-21T22:53:04.183Z,13.90
2023-03-21T22:55:32.879Z,13.90
2023-03-21T22:58:04.648Z,14.00
2023-03-21T23:00:34.271Z,13.80
2023-03-21T23:03:04.389Z,13.90
2023-03-21T23:05:33.285Z,13.80
2023-03-21T23:08:02.131Z,13.60
2023-03-21T23:10:31.167Z,13.50
2023-03-21T23:13:00.030Z,13.50
2023-03-21T23:15:29.177Z,13.40
2023-03-21T23:17:58.016Z,13.40
2023-03-21T23:20:28.296Z,13.50
2023-03-21T23:22:58.753Z,13.30
2023-03-21T23:25:29.072Z,13.30
2023-03-21T23:27:58.056Z,13.30
2023-03-21T23:30:27.171Z,13.20
2023-03-21T23:32:56.808Z,13.30
2023-03-21T23:35:26.992Z,13.10
2023-03-21T23:37:55.909Z,13.10
2023-03-21T23:40:24.591Z,13.00
2023-03-21T23:42:53.655Z,13.10
2023-03-21T23:45:22.338Z,13.10
2023-03-21T23:47:51.115Z,13.00
2023-03-21T23:50:19.833Z,13.10
2023-03-21T23:52:49.966Z,13.00
2023-03-21T23:55:18.794Z,13.00
2023-03-21T23:57:48.222Z,12.90
